createdAt,value
2024-01-08T00:00:43.459Z,91354.28
2024-01-08T00:03:10.125Z,91345.91
2024-01-08T00:05:40.651Z,91352.09
2024-01-08T00:08:09.052Z,91340.47
2024-01-08T00:10:38.842Z,91351.38
2024-01-08T00:13:06.048Z,91341.69
2024-01-08T00:15:32.786Z,91342.97
2024-01-08T00:17:59.565Z,91349.88
2024-01-08T00:20:26.306Z,91342.97
2024-01-08T00:22:52.966Z,91349.88
2024-01-08T00:25:23.372Z,91355.13
2024-01-08T00:27:53.090Z,91350.94
2024-01-08T00:30:20.384Z,91345.81
2024-01-08T00:32:48.159Z,91346.94
2024-01-08T00:35:15.624Z,91356.41
2024-01-08T00:37:42.703Z,91357.66
2024-01-08T00:40:13.052Z,91346.03
2024-01-08T00:42:40.728Z,91352.72
2024-01-08T00:45:08.648Z,91345.06
2024-01-08T00:47:35.946Z,91350.53
2024-01-08T00:50:03.961Z,91354.00
2024-01-08T00:52:30.757Z,91358.72
2024-01-08T00:55:03.245Z,91362.19
2024-01-08T00:57:29.859Z,91358.50
2024-01-08T00:59:56.465Z,91368.34
2024-01-08T01:02:23.102Z,91357.44
2024-01-08T01:04:50.166Z,91364.16
2024-01-08T01:07:17.230Z,91354.53
2024-01-08T01:09:43.813Z,91358.50
2024-01-08T01:12:11.156Z,91355.75
2024-01-08T01:14:37.881Z,91367.94
2024-01-08T01:17:04.866Z,91357.03
2024-01-08T01:19:31.596Z,91366.47
2024-01-08T01:21:58.264Z,91363.72
2024-01-08T01:24:25.231Z,91371.91
2024-01-08T01:26:51.948Z,91374.66
2024-01-08T01:29:18.600Z,91366.47
2024-01-08T01:31:45.203Z,91384.09
2024-01-08T01:34:12.209Z,91369.72
2024-01-08T01:36:39.168Z,91371.69
2024-01-08T01:39:06.054Z,91383.88
2024-01-08T01:41:33.437Z,91374.44
2024-01-08T01:44:00.432Z,91378.44
2024-01-08T01:46:34.604Z,91371.09
2024-01-08T01:49:01.462Z,91386.41
2024-01-08T01:51:28.146Z,91382.44
2024-01-08T01:53:55.125Z,91382.44
2024-01-08T01:56:21.814Z,91375.28
2024-01-08T01:58:48.813Z,91374.75
2024-01-08T02:01:15.835Z,91365.63
2024-01-08T02:03:43.215Z,91374.25
2024-01-08T02:06:12.465Z,91382.44
2024-01-08T02:08:40.012Z,91371.53
2024-01-08T02:11:06.623Z,91374.25
2024-01-08T02:13:33.225Z,91375.91
2024-01-08T02:15:59.946Z,91378.63
2024-01-08T02:18:26.620Z,91377.16
2024-01-08T02:20:53.233Z,91379.88
2024-01-08T02:23:19.964Z,91386.06
2024-01-08T02:25:46.718Z,91391.53
2024-01-08T02:28:13.312Z,91381.16
2024-01-08T02:30:39.971Z,91387.88
2024-01-08T02:33:06.594Z,91384.94
2024-01-08T02:35:33.307Z,91391.63
2024-01-08T02:37:59.973Z,91392.91
2024-01-08T02:40:27.499Z,91384.72
2024-01-08T02:42:54.243Z,91391.41
2024-01-08T02:45:20.950Z,91403.06
2024-01-08T02:47:47.678Z,91395.41
2024-01-08T02:50:14.446Z,91395.41
2024-01-08T02:52:41.084Z,91395.63
2024-01-08T02:55:08.197Z,91390.19
2024-01-08T02:57:34.864Z,91391.41
2024-01-08T03:00:04.988Z,91395.41
2024-01-08T03:02:32.460Z,91395.41
2024-01-08T03:04:59.227Z,91400.88
2024-01-08T03:07:25.833Z,91404.84
2024-01-08T03:09:57.934Z,91407.56
2024-01-08T03:12:25.391Z,91403.59
2024-01-08T03:14:52.619Z,91409.56
2024-01-08T03:17:19.330Z,91410.81
2024-01-08T03:19:46.085Z,91404.13
2024-01-08T03:22:12.707Z,91415.75
2024-01-08T03:24:39.309Z,91410.81
2024-01-08T03:27:05.931Z,91409.38
2024-01-08T03:29:32.746Z,91407.16
2024-01-08T03:31:59.437Z,91411.34
2024-01-08T03:34:26.202Z,91418.28
2024-01-08T03:36:52.961Z,91420.78
2024-01-08T03:39:19.562Z,91411.34
2024-01-08T03:41:46.140Z,91415.34
2024-01-08T03:44:14.620Z,91422.25
2024-01-08T03:46:41.552Z,91416.81
2024-01-08T03:49:08.295Z,91419.31
2024-01-08T03:51:37.881Z,91426.25
2024-01-08T03:54:04.584Z,91424.75
2024-01-08T03:56:31.254Z,91420.59
2024-01-08T03:58:58.007Z,91415.97
2024-01-08T04:01:24.947Z,91421.09
2024-01-08T04:03:51.591Z,91410.19
2024-01-08T04:06:18.566Z,91416.38
2024-01-08T04:08:45.255Z,91415.97
2024-01-08T04:11:11.963Z,91416.38
2024-01-08T04:13:39.893Z,91415.97
2024-01-08T04:16:06.840Z,91427.28
2024-01-08T04:18:33.741Z,91424.06
2024-01-08T04:21:00.480Z,91418.59
2024-01-08T04:23:27.114Z,91424.75
2024-01-08T04:25:53.781Z,91424.75
2024-01-08T04:28:22.098Z,91430.22
2024-01-08T04:30:48.566Z,91418.59
2024-01-08T04:33:15.421Z,91434.97
2024-01-08T04:35:42.070Z,91434.22
2024-01-08T04:38:08.715Z,91432.72
2024-01-08T04:40:35.288Z,91430.53
2024-01-08T04:43:01.866Z,91438.50
2024-01-08T04:45:28.482Z,91433.78
2024-01-08T04:47:55.187Z,91446.88
2024-01-08T04:50:21.904Z,91447.41
2024-01-08T04:52:48.537Z,91448.69
2024-01-08T04:55:15.564Z,91452.66
2024-01-08T04:57:42.307Z,91443.75
2024-01-08T05:00:09.345Z,91455.16
2024-01-08T05:02:36.199Z,91437.34
2024-01-08T05:05:05.988Z,91449.69
2024-01-08T05:07:32.655Z,91453.69
2024-01-08T05:09:59.742Z,91452.94
2024-01-08T05:12:26.340Z,91448.25
2024-01-08T05:14:52.931Z,91453.69
2024-01-08T05:17:21.623Z,91452.94
2024-01-08T05:19:49.683Z,91461.13
2024-01-08T05:22:16.284Z,91461.66
2024-01-08T05:24:42.886Z,91456.00
2024-01-08T05:27:09.496Z,91459.97
2024-01-08T05:29:36.151Z,91466.88
2024-01-08T05:32:02.901Z,91459.47
2024-01-08T05:34:29.950Z,91469.63
2024-01-08T05:36:57.477Z,91468.16
2024-01-08T05:39:24.095Z,91477.56
2024-01-08T05:41:50.753Z,91474.84
2024-01-08T05:44:17.382Z,91470.66
2024-01-08T05:46:45.050Z,91476.13
2024-01-08T05:49:11.999Z,91480.81
2024-01-08T05:51:38.649Z,91490.97
2024-01-08T05:54:05.280Z,91489.75
2024-01-08T05:56:32.881Z,91490.97
2024-01-08T05:59:00.703Z,91494.97
2024-01-08T06:01:27.395Z,91496.25
2024-01-08T06:03:54.078Z,91505.88
2024-01-08T06:06:21.935Z,91496.03
2024-01-08T06:08:50.055Z,91506.94
2024-01-08T06:11:17.909Z,91510.88
2024-01-08T06:13:44.587Z,91512.38
2024-01-08T06:16:16.899Z,91500.72
2024-01-08T06:18:43.844Z,91505.44
2024-01-08T06:21:10.492Z,91500.72
2024-01-08T06:23:37.226Z,91515.09
2024-01-08T06:26:04.647Z,91505.44
2024-01-08T06:28:31.355Z,91514.88
2024-01-08T06:30:58.117Z,91513.41
2024-01-08T06:33:25.024Z,91515.19
2024-01-08T06:35:51.856Z,91509.72
2024-01-08T06:38:18.539Z,91509.00
2024-01-08T06:40:45.225Z,91525.34
2024-01-08T06:43:12.172Z,91526.59
2024-01-08T06:45:38.728Z,91527.84
2024-01-08T06:48:05.628Z,91530.06
2024-01-08T06:50:32.449Z,91528.59
2024-01-08T06:52:59.067Z,91530.56
2024-01-08T06:55:25.651Z,91529.63
2024-01-08T06:57:54.079Z,91528.88
2024-01-08T07:00:22.300Z,91538.53
2024-01-08T07:02:49.270Z,91540.53
2024-01-08T07:05:16.843Z,91545.53
2024-01-08T07:07:43.472Z,91549.94
2024-01-08T07:10:10.309Z,91550.69
2024-01-08T07:12:37.009Z,91548.50
2024-01-08T07:15:08.245Z,91546.50
2024-01-08T07:17:35.021Z,91552.44
2024-01-08T07:20:01.890Z,91545.84
2024-01-08T07:22:28.669Z,91552.44
2024-01-08T07:24:55.243Z,91555.69
2024-01-08T07:27:21.813Z,91548.34
2024-01-08T07:29:48.418Z,91556.75
2024-01-08T07:32:15.809Z,91563.66
2024-01-08T07:34:42.559Z,91567.63
2024-01-08T07:37:09.187Z,91573.84
2024-01-08T07:39:35.767Z,91578.53
2024-01-08T07:42:02.338Z,91577.34
2024-01-08T07:44:28.937Z,91583.53
2024-01-08T07:46:55.578Z,91586.47
2024-01-08T07:49:22.220Z,91590.88
2024-01-08T07:51:48.844Z,91593.09
2024-01-08T07:54:15.450Z,91595.31
2024-01-08T07:56:52.710Z,91587.34
2024-01-08T07:59:23.782Z,91594.28
2024-01-08T08:01:50.411Z,91595.97
2024-01-08T08:04:17.082Z,91602.91
2024-01-08T08:06:45.278Z,91611.09
2024-01-08T08:09:11.909Z,91607.09
2024-01-08T08:11:40.550Z,91611.28
2024-01-08T08:14:07.280Z,91618.22
2024-01-08T08:16:34.010Z,91614.22
2024-01-08T08:19:00.763Z,91622.41
2024-01-08T08:21:27.474Z,91622.41
2024-01-08T08:23:54.849Z,91619.91
2024-01-08T08:26:21.651Z,91626.84
2024-01-08T08:28:48.350Z,91626.84
2024-01-08T08:31:15.019Z,91640.47
2024-01-08T08:33:43.479Z,91639.41
2024-01-08T08:36:10.448Z,91633.75
2024-01-08T08:38:38.644Z,91647.59
2024-01-08T08:41:07.463Z,91635.22
2024-01-08T08:43:35.164Z,91640.88
2024-01-08T08:46:03.280Z,91647.06
2024-01-08T08:48:30.178Z,91647.81
2024-01-08T08:50:56.793Z,91652.00
2024-01-08T08:53:23.402Z,91656.00
2024-01-08T08:55:50.037Z,91662.19
2024-01-08T08:58:16.613Z,91656.75
2024-01-08T09:00:43.219Z,91664.16
2024-01-08T09:03:09.851Z,91670.84
2024-01-08T09:05:40.380Z,91661.44
2024-01-08T09:08:10.493Z,91672.09
2024-01-08T09:10:37.087Z,91672.09
2024-01-08T09:13:03.839Z,91667.91
2024-01-08T09:15:30.541Z,91673.34
2024-01-08T09:17:57.226Z,91678.78
2024-01-08T09:20:24.348Z,91677.56
2024-01-08T09:22:51.051Z,91680.28
2024-01-08T09:25:17.989Z,91686.47
2024-01-08T09:27:44.589Z,91689.69
2024-01-08T09:30:11.681Z,91690.44
2024-01-08T09:32:38.714Z,91696.63
2024-01-08T09:35:06.035Z,91684.25
2024-01-08T09:37:32.686Z,91689.69
2024-01-08T09:39:59.264Z,91681.03
2024-01-08T09:42:28.563Z,91694.88
2024-01-08T09:44:55.996Z,91692.88
2024-01-08T09:47:22.682Z,91698.31
2024-01-08T09:49:49.646Z,91694.13
2024-01-08T09:52:18.284Z,91698.84
2024-01-08T09:54:44.933Z,91695.59
2024-01-08T09:57:11.923Z,91698.53
2024-01-08T09:59:38.773Z,91702.53
2024-01-08T10:02:05.778Z,91697.09
2024-01-08T10:04:32.504Z,91694.34
2024-01-08T10:07:08.515Z,91699.28
2024-01-08T10:09:35.831Z,91691.63
2024-01-08T10:12:02.449Z,91697.31
2024-01-08T10:14:29.260Z,91694.59
2024-01-08T10:17:01.867Z,91697.81
2024-01-08T10:19:29.970Z,91688.69
2024-01-08T10:22:13.974Z,91686.69
2024-01-08T10:24:43.129Z,91690.16
2024-01-08T10:27:11.236Z,91695.59
2024-01-08T10:29:39.350Z,91694.13
2024-01-08T10:32:07.071Z,91691.41
2024-01-08T10:34:35.372Z,91689.44
2024-01-08T10:37:02.205Z,91689.44
2024-01-08T10:39:43.339Z,91695.59
2024-01-08T10:42:15.397Z,91690.88
2024-01-08T10:44:42.205Z,91695.59
2024-01-08T10:47:21.051Z,91695.81
2024-01-08T10:49:57.721Z,91696.06
2024-01-08T10:52:33.881Z,91693.31
2024-01-08T10:55:03.752Z,91697.50
2024-01-08T10:57:49.018Z,91695.53
2024-01-08T11:00:15.899Z,91688.09
2024-01-08T11:02:43.604Z,91679.94
2024-01-08T11:05:11.244Z,91685.59
2024-01-08T11:07:42.790Z,91682.38
2024-01-08T11:10:13.024Z,91678.38
2024-01-08T11:12:41.948Z,91678.91
2024-01-08T11:15:10.574Z,91680.38
2024-01-08T11:17:37.479Z,91677.66
2024-01-08T11:20:08.288Z,91679.13
2024-01-08T11:22:38.782Z,91673.66
2024-01-08T11:25:06.368Z,91679.13
2024-01-08T11:27:33.002Z,91675.13
2024-01-08T11:30:04.002Z,91680.38
2024-01-08T11:32:54.074Z,91691.47
2024-01-08T11:35:21.679Z,91686.03
2024-01-08T11:38:21.244Z,91680.59
2024-01-08T11:40:47.818Z,91685.31
2024-01-08T11:43:15.181Z,91679.34
2024-01-08T11:45:41.800Z,91683.53
2024-01-08T11:48:09.322Z,91680.81
2024-01-08T11:50:36.073Z,91680.81
2024-01-08T11:53:05.201Z,91679.56
2024-01-08T11:55:32.984Z,91678.09
2024-01-08T11:57:59.890Z,91675.59
2024-01-08T12:00:30.361Z,91674.13
2024-01-08T12:03:08.598Z,91679.56
2024-01-08T12:05:35.380Z,91687.22
2024-01-08T12:08:02.134Z,91681.78
2024-01-08T12:10:28.778Z,91673.59
2024-01-08T12:12:56.498Z,91677.06
2024-01-08T12:15:23.942Z,91677.06
2024-01-08T12:17:51.038Z,91679.81
2024-01-08T12:20:17.870Z,91686.72
2024-01-08T12:22:44.957Z,91683.97
2024-01-08T12:25:11.725Z,91669.13
2024-01-08T12:27:40.017Z,91670.59
2024-01-08T12:30:08.701Z,91673.53
2024-01-08T12:32:37.623Z,91669.31
2024-01-08T12:35:06.655Z,91675.00
2024-01-08T12:37:34.821Z,91665.88
2024-01-08T12:40:02.423Z,91661.16
2024-01-08T12:42:29.330Z,91669.84
2024-01-08T12:44:57.227Z,91665.13
2024-01-08T12:47:24.250Z,91666.09
2024-01-08T12:49:51.106Z,91669.56
2024-01-08T12:52:17.821Z,91669.56
2024-01-08T12:54:45.100Z,91663.88
2024-01-08T12:57:12.920Z,91673.75
2024-01-08T12:59:53.596Z,91663.38
2024-01-08T13:02:20.754Z,91673.75
2024-01-08T13:04:48.057Z,91676.25
2024-01-08T13:07:14.649Z,91669.56
2024-01-08T13:09:41.260Z,91683.69
2024-01-08T13:12:10.243Z,91677.00
2024-01-08T13:14:37.039Z,91680.97
2024-01-08T13:17:04.558Z,91672.06
2024-01-08T13:19:34.417Z,91672.06
2024-01-08T13:22:03.205Z,91670.28
2024-01-08T13:24:29.960Z,91666.59
2024-01-08T13:26:56.663Z,91670.59
2024-01-08T13:29:23.557Z,91678.75
2024-01-08T13:31:50.354Z,91678.53
2024-01-08T13:34:17.215Z,91681.50
2024-01-08T13:36:43.903Z,91682.75
2024-01-08T13:39:11.592Z,91692.38
2024-01-08T13:41:43.611Z,91695.13
2024-01-08T13:44:11.751Z,91694.88
2024-01-08T13:46:38.927Z,91701.09
2024-01-08T13:49:06.192Z,91701.81
2024-01-08T13:51:32.929Z,91701.09
2024-01-08T13:53:59.637Z,91707.06
2024-01-08T13:56:26.335Z,91704.31
2024-01-08T13:58:53.065Z,91715.22
2024-01-08T14:01:19.879Z,91709.78
2024-01-08T14:03:46.676Z,91716.47
2024-01-08T14:06:14.414Z,91713.72
2024-01-08T14:08:41.675Z,91715.22
2024-01-08T14:11:08.828Z,91719.19
2024-01-08T14:13:35.523Z,91723.88
2024-01-08T14:16:02.577Z,91723.16
2024-01-08T14:18:29.635Z,91728.38
2024-01-08T14:20:56.633Z,91737.31
2024-01-08T14:23:23.387Z,91734.06
2024-01-08T14:25:49.996Z,91740.25
2024-01-08T14:28:16.643Z,91739.53
2024-01-08T14:30:43.440Z,91746.94
2024-01-08T14:33:10.361Z,91752.91
2024-01-08T14:35:37.179Z,91750.72
2024-01-08T14:38:04.162Z,91751.41
2024-01-08T14:40:30.945Z,91754.66
2024-01-08T14:43:01.261Z,91756.88
2024-01-08T14:45:28.262Z,91760.84
2024-01-08T14:47:55.136Z,91758.13
2024-01-08T14:50:23.793Z,91760.13
2024-01-08T14:52:51.046Z,91764.84
2024-01-08T14:55:18.006Z,91764.84
2024-01-08T14:57:44.861Z,91771.00
2024-01-08T15:00:12.684Z,91764.09
2024-01-08T15:02:41.840Z,91771.75
2024-01-08T15:05:10.782Z,91777.22
2024-01-08T15:07:38.422Z,91781.19
2024-01-08T15:10:08.961Z,91776.22
2024-01-08T15:12:36.040Z,91783.69
2024-01-08T15:15:02.834Z,91782.44
2024-01-08T15:17:29.608Z,91786.94
2024-01-08T15:19:56.264Z,91787.88
2024-01-08T15:22:22.929Z,91791.88
2024-01-08T15:24:56.657Z,91793.09
2024-01-08T15:27:26.267Z,91793.09
2024-01-08T15:29:54.086Z,91793.09
2024-01-08T15:32:22.705Z,91798.53
2024-01-08T15:34:49.452Z,91801.78
2024-01-08T15:37:16.429Z,91803.75
2024-01-08T15:39:43.004Z,91803.75
2024-01-08T15:42:09.656Z,91794.13
2024-01-08T15:44:36.353Z,91805.03
2024-01-08T15:47:03.051Z,91805.53
2024-01-08T15:49:29.766Z,91811.72
2024-01-08T15:51:56.393Z,91823.13
2024-01-08T15:54:24.847Z,91815.69
2024-01-08T15:56:51.802Z,91820.38
2024-01-08T15:59:18.660Z,91817.66
2024-01-08T16:01:45.374Z,91828.56
2024-01-08T16:04:12.115Z,91830.06
2024-01-08T16:06:38.822Z,91822.41
2024-01-08T16:09:06.485Z,91837.25
2024-01-08T16:11:33.396Z,91833.28
2024-01-08T16:14:00.277Z,91831.09
2024-01-08T16:16:27.625Z,91835.78
2024-01-08T16:18:54.610Z,91842.69
2024-01-08T16:21:21.286Z,91834.28
2024-01-08T16:23:55.672Z,91842.47
2024-01-08T16:26:29.378Z,91853.38
2024-01-08T16:28:56.021Z,91849.41
2024-01-08T16:31:22.734Z,91847.91
2024-01-08T16:33:49.505Z,91860.31
2024-01-08T16:36:16.491Z,91850.63
2024-01-08T16:38:43.316Z,91860.31
2024-01-08T16:41:09.972Z,91864.25
2024-01-08T16:43:36.592Z,91867.72
2024-01-08T16:46:03.540Z,91867.25
2024-01-08T16:48:31.117Z,91872.44
2024-01-08T16:50:57.965Z,91879.38
2024-01-08T16:53:25.197Z,91876.66
2024-01-08T16:55:51.858Z,91872.44
2024-01-08T16:58:18.428Z,91878.63
2024-01-08T17:00:45.049Z,91887.31
2024-01-08T17:03:11.790Z,91888.78
2024-01-08T17:05:39.191Z,91888.06
2024-01-08T17:08:06.047Z,91887.31
2024-01-08T17:10:32.618Z,91894.22
2024-01-08T17:12:59.255Z,91892.00
2024-01-08T17:15:25.866Z,91891.50
2024-01-08T17:17:54.749Z,91901.16
2024-01-08T17:20:21.729Z,91906.63
2024-01-08T17:22:48.782Z,91906.63
2024-01-08T17:25:16.061Z,91904.63
2024-01-08T17:27:42.770Z,91910.56
2024-01-08T17:30:10.999Z,91906.63
2024-01-08T17:32:39.165Z,91910.56
2024-01-08T17:35:06.580Z,91917.50
2024-01-08T17:37:34.546Z,91918.75
2024-01-08T17:40:01.246Z,91922.22
2024-01-08T17:42:27.937Z,91930.91
2024-01-08T17:44:54.494Z,91930.16
2024-01-08T17:47:21.126Z,91936.34
2024-01-08T17:49:49.072Z,91934.84
2024-01-08T17:52:15.664Z,91930.66
2024-01-08T17:54:42.251Z,91939.56
2024-01-08T17:57:08.863Z,91938.84
2024-01-08T17:59:38.052Z,91938.84
2024-01-08T18:02:04.981Z,91937.38
2024-01-08T18:04:31.768Z,91948.97
2024-01-08T18:06:58.886Z,91945.75
2024-01-08T18:09:25.625Z,91948.25
2024-01-08T18:11:52.199Z,91950.75
2024-01-08T18:14:19.322Z,91948.03
2024-01-08T18:16:47.093Z,91945.31
2024-01-08T18:19:14.176Z,91956.19
2024-01-08T18:21:42.819Z,91956.19
2024-01-08T18:24:20.339Z,91956.19
2024-01-08T18:26:54.555Z,91953.47
2024-01-08T18:29:21.681Z,91961.66
2024-01-08T18:31:48.484Z,91967.09
2024-01-08T18:34:16.572Z,91965.59
2024-01-08T18:36:43.983Z,91972.31
2024-01-08T18:39:12.925Z,91971.03
2024-01-08T18:41:39.741Z,91973.78
2024-01-08T18:44:06.428Z,91973.06
2024-01-08T18:46:33.174Z,91982.69
2024-01-08T18:48:59.869Z,91981.94
2024-01-08T18:51:26.597Z,91987.38
2024-01-08T18:53:53.629Z,91987.38
2024-01-08T18:56:20.323Z,91993.59
2024-01-08T18:58:46.954Z,91998.28
2024-01-08T19:01:13.602Z,91994.34
2024-01-08T19:03:40.354Z,91998.28
2024-01-08T19:06:08.929Z,91997.06
2024-01-08T19:08:35.951Z,92003.00
2024-01-08T19:11:02.845Z,92008.47
2024-01-08T19:13:33.520Z,92007.72
2024-01-08T19:16:00.110Z,92003.28
2024-01-08T19:18:26.930Z,92014.63
2024-01-08T19:20:53.950Z,92018.84
2024-01-08T19:23:23.286Z,92020.06
2024-01-08T19:25:53.189Z,92017.59
2024-01-08T19:28:19.827Z,92021.06
2024-01-08T19:30:46.904Z,92018.84
2024-01-08T19:33:13.782Z,92022.28
2024-01-08T19:35:40.849Z,92027.03
2024-01-08T19:38:08.167Z,92018.84
2024-01-08T19:40:35.060Z,92018.84
2024-01-08T19:43:02.015Z,92022.28
2024-01-08T19:45:38.114Z,92020.81
2024-01-08T19:48:06.507Z,92026.50
2024-01-08T19:50:33.448Z,92033.69
2024-01-08T19:53:00.129Z,92027.75
2024-01-08T19:55:27.336Z,92031.72
2024-01-08T19:57:53.994Z,92023.31
2024-01-08T20:00:20.896Z,92025.28
2024-01-08T20:02:47.631Z,92030.25
2024-01-08T20:05:14.507Z,92031.72
2024-01-08T20:07:41.227Z,92032.00
2024-01-08T20:10:09.285Z,92034.22
2024-01-08T20:12:36.344Z,92034.94
2024-01-08T20:15:03.277Z,92034.94
2024-01-08T20:17:29.974Z,92039.66
2024-01-08T20:19:58.444Z,92037.44
2024-01-08T20:22:25.005Z,92040.41
2024-01-08T20:24:52.401Z,92043.63
2024-01-08T20:27:19.210Z,92042.13
2024-01-08T20:29:46.823Z,92046.88
2024-01-08T20:32:13.557Z,92050.06
2024-01-08T20:34:40.260Z,92045.38
2024-01-08T20:37:06.938Z,92039.91
2024-01-08T20:39:33.539Z,92039.16
2024-01-08T20:42:00.952Z,92043.91
2024-01-08T20:44:27.942Z,92045.38
2024-01-08T20:46:54.638Z,92048.59
2024-01-08T20:49:27.426Z,92054.78
2024-01-08T20:51:55.736Z,92053.28
2024-01-08T20:54:23.182Z,92054.78
2024-01-08T20:56:50.356Z,92054.78
2024-01-08T20:59:17.154Z,92051.81
2024-01-08T21:01:43.904Z,92056.78
2024-01-08T21:04:11.140Z,92060.25
2024-01-08T21:06:37.989Z,92057.28
2024-01-08T21:09:06.052Z,92060.25
2024-01-08T21:11:33.184Z,92068.41
2024-01-08T21:13:59.919Z,92069.63
2024-01-08T21:16:26.751Z,92064.19
2024-01-08T21:18:55.054Z,92069.63
2024-01-08T21:21:21.905Z,92069.63
2024-01-08T21:23:48.618Z,92069.63
2024-01-08T21:26:16.087Z,92070.38
2024-01-08T21:28:42.795Z,92071.13
2024-01-08T21:31:12.300Z,92073.63
2024-01-08T21:33:40.646Z,92076.59
2024-01-08T21:36:07.583Z,92082.03
2024-01-08T21:38:37.426Z,92079.06
2024-01-08T21:41:05.121Z,92081.28
2024-01-08T21:43:34.973Z,92082.03
2024-01-08T21:46:03.200Z,92088.94
2024-01-08T21:48:30.895Z,92084.50
2024-01-08T21:50:57.721Z,92076.34
2024-01-08T21:53:24.490Z,92087.22
2024-01-08T21:55:51.332Z,92083.00
2024-01-08T21:58:17.914Z,92088.47
2024-01-08T22:00:44.738Z,92089.22
2024-01-08T22:03:11.555Z,92089.97
2024-01-08T22:05:38.342Z,92088.47
2024-01-08T22:08:05.438Z,92083.00
2024-01-08T22:10:32.100Z,92086.50
2024-01-08T22:12:59.155Z,92085.97
2024-01-08T22:15:25.825Z,92096.16
2024-01-08T22:17:52.579Z,92094.16
2024-01-08T22:20:19.254Z,92089.44
2024-01-08T22:22:47.938Z,92092.19
2024-01-08T22:25:15.061Z,92092.19
2024-01-08T22:27:42.843Z,92094.16
2024-01-08T22:30:10.275Z,92090.72
2024-01-08T22:32:37.208Z,92096.88
2024-01-08T22:35:04.123Z,92088.69
2024-01-08T22:37:30.736Z,92087.00
2024-01-08T22:39:57.408Z,92083.00
2024-01-08T22:42:25.113Z,92091.44
2024-01-08T22:44:52.881Z,92091.44
2024-01-08T22:47:19.570Z,92079.06
2024-01-08T22:49:46.351Z,92079.81
2024-01-08T22:52:12.968Z,92079.06
2024-01-08T22:54:39.544Z,92076.34
2024-01-08T22:57:06.165Z,92074.84
2024-01-08T22:59:33.596Z,92077.56
2024-01-08T23:02:00.270Z,92086.50
2024-01-08T23:04:27.449Z,92081.03
2024-01-08T23:06:54.048Z,92083.00
2024-01-08T23:09:20.667Z,92070.66
2024-01-08T23:11:47.353Z,92083.00
2024-01-08T23:14:14.228Z,92076.84
2024-01-08T23:16:40.833Z,92071.91
2024-01-08T23:19:07.633Z,92074.63
2024-01-08T23:21:34.248Z,92075.34
2024-01-08T23:24:00.897Z,92063.97
2024-01-08T23:26:27.606Z,92074.63
2024-01-08T23:28:54.252Z,92074.63
2024-01-08T23:31:20.888Z,92074.63
2024-01-08T23:33:47.598Z,92076.59
2024-01-08T23:36:14.221Z,92074.63
2024-01-08T23:38:40.867Z,92084.03
2024-01-08T23:41:07.544Z,92082.56
2024-01-08T23:43:34.160Z,92070.16
2024-01-08T23:46:00.745Z,92082.56
2024-01-08T23:48:27.584Z,92081.06
2024-01-08T23:50:54.411Z,92078.59
2024-01-08T23:53:21.176Z,92076.38
2024-01-08T23:55:47.785Z,92083.28
2024-01-08T23:58:14.393Z,92077.13
